Time;durP1;ratioP1;P1;durP2;ratioP2;P2;SDS_P1;SDS_P2;PMS_P1;PMS_P2;Temp;Humidity;BMP_temperature;BMP_pressure;BME280_temperature;BME280_humidity;BME280_pressure;Samples;Min_cycle;Max_cycle;Signal;HPM_P1;HPM_P2
2022/08/31 00:04:56;;;;;;;;;;;15.10;99.90;;;;;;5047930;28;20456;-85
2022/08/31 00:07:24;;;;;;;;;;;15.10;99.90;;;;;;5013962;28;19913;-86
2022/08/31 00:09:49;;;;;;;;;;;15.10;99.90;;;;;;5047918;28;19975;-86
2022/08/31 00:12:15;;;;;;;;;;;15.00;99.90;;;;;;5047295;28;20456;-84
2022/08/31 00:14:42;;;;;;;;;;;15.00;99.90;;;;;;5014441;28;19913;-87
2022/08/31 00:17:07;;;;;;;;;;;15.00;99.90;;;;;;5014718;28;20388;-83
2022/08/31 00:19:33;;;;;;;;;;;14.90;99.90;;;;;;5031057;28;19924;-85
2022/08/31 00:21:59;;;;;;;;;;;14.90;99.90;;;;;;5031281;28;19967;-84
2022/08/31 00:24:24;;;;;;;;;;;14.90;99.90;;;;;;5032699;28;19917;-87
2022/08/31 00:26:50;;;;;;;;;;;14.90;99.90;;;;;;5014834;28;19971;-85
2022/08/31 00:29:16;;;;;;;;;;;14.80;99.90;;;;;;5031434;28;20413;-84
2022/08/31 00:31:42;;;;;;;;;;;14.80;99.90;;;;;;5027560;28;19917;-84
2022/08/31 00:34:07;;;;;;;;;;;14.80;99.90;;;;;;5011272;28;19952;-85
2022/08/31 00:36:33;;;;;;;;;;;14.70;99.90;;;;;;5022484;28;19964;-84
2022/08/31 00:38:58;;;;;;;;;;;14.70;99.90;;;;;;5014565;28;19924;-86
2022/08/31 00:41:26;;;;;;;;;;;14.70;99.90;;;;;;5040300;28;20386;-85
2022/08/31 00:43:55;;;;;;;;;;;14.70;99.90;;;;;;5030636;28;19917;-86
2022/08/31 00:46:23;;;;;;;;;;;14.70;99.90;;;;;;5034388;28;20276;-84
2022/08/31 00:48:53;;;;;;;;;;;14.70;99.90;;;;;;5043931;28;19916;-85
2022/08/31 00:51:19;;;;;;;;;;;14.70;99.90;;;;;;5024353;28;19913;-85
2022/08/31 00:53:46;;;;;;;;;;;14.70;99.90;;;;;;5013974;28;19921;-84
2022/08/31 00:56:13;;;;;;;;;;;14.70;99.90;;;;;;5030013;28;19939;-85
2022/08/31 00:58:38;;;;;;;;;;;14.70;99.90;;;;;;5027360;28;19919;-86
2022/08/31 01:01:06;;;;;;;;;;;14.70;99.90;;;;;;5036097;28;20301;-86
2022/08/31 01:03:32;;;;;;;;;;;14.70;99.90;;;;;;5029181;28;19953;-86
2022/08/31 01:05:57;;;;;;;;;;;14.70;99.90;;;;;;5030526;28;19956;-85
2022/08/31 01:08:23;;;;;;;;;;;14.60;99.90;;;;;;5013800;28;20376;-84
2022/08/31 01:10:49;;;;;;;;;;;14.60;99.90;;;;;;5010771;28;19917;-86
2022/08/31 01:13:19;;;;;;;;;;;14.60;99.90;;;;;;5011131;28;19920;-84
2022/08/31 01:15:48;;;;;;;;;;;14.60;99.90;;;;;;5014058;28;19918;-85
2022/08/31 01:18:14;;;;;;;;;;;14.60;99.90;;;;;;5030695;28;20274;-86
2022/08/31 01:20:59;;;;;;;;;;;14.50;99.90;;;;;;5034070;28;19967;-87
2022/08/31 01:23:38;;;;;;;;;;;14.50;99.90;;;;;;5046248;28;19917;-85
2022/08/31 01:26:04;;;;;;;;;;;14.50;99.90;;;;;;5030549;28;19913;-86
2022/08/31 01:28:30;;;;;;;;;;;14.50;99.90;;;;;;5039496;28;19916;-84
2022/08/31 01:31:01;;;;;;;;;;;14.50;99.90;;;;;;5043988;28;19917;-85
2022/08/31 01:33:27;;;;;;;;;;;14.50;99.90;;;;;;4993951;28;19918;-84
2022/08/31 01:35:54;;;;;;;;;;;14.50;99.90;;;;;;5016919;28;19952;-84
2022/08/31 01:38:20;;;;;;;;;;;14.50;99.90;;;;;;5030477;28;19964;-84
2022/08/31 01:40:54;;;;;;;;;;;14.50;99.90;;;;;;5047187;28;20533;-85
2022/08/31 01:43:20;;;;;;;;;;;14.50;99.90;;;;;;5029998;28;19920;-87
2022/08/31 01:45:46;;;;;;;;;;;14.50;99.90;;;;;;5046599;28;20309;-84
2022/08/31 01:48:11;;;;;;;;;;;14.50;99.90;;;;;;5013841;28;19913;-85
2022/08/31 01:50:37;;;;;;;;;;;14.50;99.90;;;;;;5013812;28;19975;-86
2022/08/31 01:53:03;;;;;;;;;;;14.50;99.90;;;;;;5030112;28;19924;-85
2022/08/31 01:55:28;;;;;;;;;;;14.50;99.90;;;;;;5029887;28;19909;-85
2022/08/31 01:57:58;;;;;;;;;;;14.40;99.90;;;;;;5040169;28;19913;-84
2022/08/31 02:00:51;;;;;;;;;;;14.40;99.90;;;;;;5040404;28;19971;-84
2022/08/31 02:03:17;;;;;;;;;;;14.40;99.90;;;;;;5013410;28;19925;-85
2022/08/31 02:05:42;;;;;;;;;;;14.40;99.90;;;;;;5029731;28;19913;-84
2022/08/31 02:08:09;;;;;;;;;;;14.50;99.90;;;;;;5013877;28;19917;-83
2022/08/31 02:10:35;;;;;;;;;;;14.50;99.90;;;;;;5046504;28;19956;-84
2022/08/31 02:13:00;;;;;;;;;;;14.50;99.90;;;;;;5029608;28;19960;-84
2022/08/31 02:15:29;;;;;;;;;;;14.50;99.90;;;;;;5027902;28;19921;-86
2022/08/31 02:17:55;;;;;;;;;;;14.50;99.90;;;;;;5049839;28;19913;-84
2022/08/31 02:20:22;;;;;;;;;;;14.50;99.90;;;;;;5033200;28;19917;-85
2022/08/31 02:22:48;;;;;;;;;;;14.50;99.90;;;;;;5013762;28;19960;-84
2022/08/31 02:25:15;;;;;;;;;;;14.50;99.90;;;;;;5020337;28;19969;-86
2022/08/31 02:27:43;;;;;;;;;;;14.50;99.90;;;;;;5016647;28;20306;-84
2022/08/31 02:30:10;;;;;;;;;;;14.50;99.90;;;;;;5033649;28;19917;-84
2022/08/31 02:32:36;;;;;;;;;;;14.60;99.90;;;;;;5049992;28;20365;-85
2022/08/31 02:35:02;;;;;;;;;;;14.50;99.90;;;;;;5033355;28;20090;-83
2022/08/31 02:37:28;;;;;;;;;;;14.50;99.90;;;;;;5029978;28;19918;-84
2022/08/31 02:39:54;;;;;;;;;;;14.50;99.90;;;;;;5013690;28;19971;-84
2022/08/31 02:42:20;;;;;;;;;;;14.50;99.90;;;;;;5031385;28;19944;-84
2022/08/31 02:44:46;;;;;;;;;;;14.50;99.90;;;;;;5033037;28;20431;-86
2022/08/31 02:47:12;;;;;;;;;;;14.50;99.90;;;;;;5016741;28;19925;-85
2022/08/31 02:49:47;;;;;;;;;;;14.50;99.90;;;;;;5033231;28;19917;-86
2022/08/31 02:52:12;;;;;;;;;;;14.40;99.90;;;;;;5016528;28;19925;-85
2022/08/31 02:54:39;;;;;;;;;;;14.40;99.90;;;;;;5032876;28;19917;-85
2022/08/31 02:57:05;;;;;;;;;;;14.40;99.90;;;;;;5018393;28;19913;-83
2022/08/31 02:59:31;;;;;;;;;;;14.40;99.90;;;;;;5033232;28;19917;-84
2022/08/31 03:01:57;;;;;;;;;;;14.40;99.90;;;;;;5015425;28;20368;-84
2022/08/31 03:04:22;;;;;;;;;;;14.40;99.90;;;;;;5024292;28;19917;-84
2022/08/31 03:06:48;;;;;;;;;;;14.30;99.90;;;;;;5038931;28;19924;-86
2022/08/31 03:09:15;;;;;;;;;;;14.30;99.90;;;;;;5031358;28;19928;-85
2022/08/31 03:11:41;;;;;;;;;;;14.30;99.90;;;;;;5016223;28;19917;-86
2022/08/31 03:14:07;;;;;;;;;;;14.30;99.90;;;;;;5017705;28;19987;-85
2022/08/31 03:16:33;;;;;;;;;;;14.30;99.90;;;;;;5032289;28;20381;-84
2022/08/31 03:18:59;;;;;;;;;;;14.30;99.90;;;;;;5032132;28;19914;-84
2022/08/31 03:21:25;;;;;;;;;;;14.30;99.90;;;;;;5021869;28;19918;-84
2022/08/31 03:23:50;;;;;;;;;;;14.30;99.90;;;;;;4998846;28;20082;-84
2022/08/31 03:26:16;;;;;;;;;;;14.30;99.90;;;;;;5025046;28;19983;-84
2022/08/31 03:28:42;;;;;;;;;;;14.30;99.90;;;;;;5030950;28;20124;-84
2022/08/31 03:31:34;;;;;;;;;;;14.30;99.90;;;;;;5045003;28;19921;-85
2022/08/31 03:34:01;;;;;;;;;;;14.30;99.90;;;;;;5022079;28;20007;-84
2022/08/31 03:36:26;;;;;;;;;;;14.30;99.90;;;;;;5015195;28;20569;-84
2022/08/31 03:38:52;;;;;;;;;;;14.30;99.90;;;;;;5014723;28;19921;-84
2022/08/31 03:41:20;;;;;;;;;;;14.30;99.90;;;;;;5028705;28;19920;-86
2022/08/31 03:43:46;;;;;;;;;;;14.30;99.90;;;;;;5031388;28;19913;-84
2022/08/31 03:46:12;;;;;;;;;;;14.30;99.90;;;;;;5013783;28;19918;-85
2022/08/31 03:48:37;;;;;;;;;;;14.30;99.90;;;;;;5031181;28;19929;-84
2022/08/31 03:51:03;;;;;;;;;;;14.30;99.90;;;;;;5046953;28;20296;-84
2022/08/31 03:53:34;;;;;;;;;;;14.40;99.90;;;;;;5011250;28;19918;-86
2022/08/31 03:56:02;;;;;;;;;;;14.40;99.90;;;;;;5031064;28;19919;-86
2022/08/31 03:58:31;;;;;;;;;;;14.40;99.90;;;;;;5031622;28;19917;-85
2022/08/31 04:00:58;;;;;;;;;;;14.40;99.90;;;;;;5011183;28;19999;-84
2022/08/31 04:03:50;;;;;;;;;;;14.40;99.90;;;;;;5010769;28;19917;-84
2022/08/31 04:06:34;;;;;;;;;;;14.40;99.90;;;;;;5018071;28;20412;-85
2022/08/31 04:09:18;;;;;;;;;;;14.40;99.90;;;;;;5001378;28;19928;-85
2022/08/31 04:12:17;;;;;;;;;;;14.30;99.90;;;;;;5031647;28;19921;-83
2022/08/31 04:15:07;;;;;;;;;;;14.30;99.90;;;;;;5031113;28;19917;-83
2022/08/31 04:17:58;;;;;;;;;;;14.30;99.90;;;;;;5031963;28;19913;-83
2022/08/31 04:20:42;;;;;;;;;;;14.30;99.90;;;;;;5031631;28;19920;-87
2022/08/31 04:23:08;;;;;;;;;;;14.20;99.90;;;;;;5023569;28;19921;-84
2022/08/31 04:25:37;;;;;;;;;;;14.20;99.90;;;;;;5026360;28;19948;-87
2022/08/31 04:28:03;;;;;;;;;;;14.20;99.90;;;;;;5015573;28;19917;-85
2022/08/31 04:30:29;;;;;;;;;;;14.20;99.90;;;;;;5031794;28;19924;-85
2022/08/31 04:32:55;;;;;;;;;;;14.20;99.90;;;;;;5015258;28;19921;-86
2022/08/31 04:35:21;;;;;;;;;;;14.10;99.90;;;;;;5015102;28;19917;-85
2022/08/31 04:37:47;;;;;;;;;;;14.20;99.90;;;;;;5031612;28;20023;-84
2022/08/31 04:40:18;;;;;;;;;;;14.10;99.90;;;;;;5030954;28;19917;-85
2022/08/31 04:42:44;;;;;;;;;;;14.10;99.90;;;;;;5031407;28;20373;-84
2022/08/31 04:45:12;;;;;;;;;;;14.10;99.90;;;;;;5040279;28;19923;-84
2022/08/31 04:47:38;;;;;;;;;;;14.10;99.90;;;;;;5011321;28;19921;-86
2022/08/31 04:50:06;;;;;;;;;;;14.20;99.90;;;;;;4994341;28;19941;-87
2022/08/31 04:52:32;;;;;;;;;;;14.20;99.90;;;;;;5009667;28;19925;-87
2022/08/31 04:54:58;;;;;;;;;;;14.20;99.90;;;;;;5029572;28;19913;-86
2022/08/31 04:57:24;;;;;;;;;;;14.20;99.90;;;;;;5023516;28;19917;-83
2022/08/31 04:59:50;;;;;;;;;;;14.30;99.90;;;;;;5030508;28;19924;-84
2022/08/31 05:02:44;;;;;;;;;;;14.30;99.90;;;;;;5029183;28;19917;-85
2022/08/31 05:05:14;;;;;;;;;;;14.30;99.90;;;;;;5013747;28;19924;-86
2022/08/31 05:07:40;;;;;;;;;;;14.40;99.90;;;;;;5047396;28;19913;-83
2022/08/31 05:10:06;;;;;;;;;;;14.40;99.90;;;;;;5029653;28;19943;-85
2022/08/31 05:12:32;;;;;;;;;;;14.50;99.90;;;;;;5029205;28;20278;-83
2022/08/31 05:14:58;;;;;;;;;;;14.50;99.90;;;;;;5046693;28;20011;-85
2022/08/31 05:17:25;;;;;;;;;;;14.60;99.90;;;;;;5031243;28;19963;-85
2022/08/31 05:19:51;;;;;;;;;;;14.60;99.90;;;;;;5030001;28;19924;-85
2022/08/31 05:22:17;;;;;;;;;;;14.70;99.90;;;;;;5026573;28;19913;-86
2022/08/31 05:24:44;;;;;;;;;;;14.70;99.90;;;;;;5016399;28;19917;-86
2022/08/31 05:27:11;;;;;;;;;;;14.80;99.90;;;;;;5028108;28;20465;-85
2022/08/31 05:29:37;;;;;;;;;;;14.90;99.90;;;;;;5013677;28;19927;-84
2022/08/31 05:32:29;;;;;;;;;;;14.90;99.90;;;;;;5029997;28;19929;-86
2022/08/31 05:34:57;;;;;;;;;;;15.00;99.90;;;;;;5029308;28;20023;-85
2022/08/31 05:37:23;;;;;;;;;;;15.00;99.90;;;;;;5017775;28;19983;-84
2022/08/31 05:39:49;;;;;;;;;;;15.10;99.90;;;;;;5008573;28;19971;-84
2022/08/31 05:42:15;;;;;;;;;;;15.10;99.90;;;;;;5026245;28;19918;-85
2022/08/31 05:44:42;;;;;;;;;;;15.10;99.90;;;;;;5009438;28;20500;-85
2022/08/31 05:47:07;;;;;;;;;;;15.20;99.90;;;;;;5026031;28;19921;-84
2022/08/31 05:49:33;;;;;;;;;;;15.20;99.90;;;;;;5012986;28;20542;-85
2022/08/31 05:51:59;;;;;;;;;;;15.30;99.90;;;;;;5031905;28;20017;-84
2022/08/31 05:54:25;;;;;;;;;;;15.30;99.90;;;;;;5016620;28;19921;-86
2022/08/31 05:56:51;;;;;;;;;;;15.40;99.90;;;;;;5033771;28;20373;-85
2022/08/31 05:59:17;;;;;;;;;;;15.40;99.90;;;;;;5014608;28;19917;-84
2022/08/31 06:01:43;;;;;;;;;;;15.50;99.90;;;;;;5047548;28;20293;-84
2022/08/31 06:04:11;;;;;;;;;;;15.60;99.90;;;;;;5017684;28;19924;-84
2022/08/31 06:06:37;;;;;;;;;;;15.80;99.90;;;;;;5016604;28;20012;-85
2022/08/31 06:09:04;;;;;;;;;;;16.00;99.90;;;;;;5032848;28;19917;-85
2022/08/31 06:11:30;;;;;;;;;;;16.20;99.90;;;;;;5032341;28;19920;-84
2022/08/31 06:13:57;;;;;;;;;;;16.30;99.90;;;;;;5016454;28;19913;-86
2022/08/31 06:16:23;;;;;;;;;;;16.30;99.90;;;;;;5040875;28;19917;-85
2022/08/31 06:18:52;;;;;;;;;;;16.30;99.90;;;;;;5037620;28;19909;-84
2022/08/31 06:21:22;;;;;;;;;;;16.40;99.90;;;;;;5014759;28;19928;-83
2022/08/31 06:23:48;;;;;;;;;;;16.40;99.90;;;;;;5037433;28;20016;-83
2022/08/31 06:26:15;;;;;;;;;;;16.40;99.90;;;;;;5034233;28;19913;-82
2022/08/31 06:28:42;;;;;;;;;;;16.40;99.90;;;;;;5046597;28;19912;-82
2022/08/31 06:31:14;;;;;;;;;;;16.50;99.90;;;;;;5001220;28;19952;-83
2022/08/31 06:33:41;;;;;;;;;;;16.60;99.90;;;;;;5051510;28;19916;-83
2022/08/31 06:36:16;;;;;;;;;;;16.80;99.90;;;;;;5049946;28;19913;-83
2022/08/31 06:38:58;;;;;;;;;;;17.00;99.90;;;;;;5018486;28;19914;-83
2022/08/31 06:41:35;;;;;;;;;;;17.10;99.90;;;;;;5017935;28;20512;-84
2022/08/31 06:44:39;;;;;;;;;;;17.20;99.90;;;;;;5030085;28;19921;-83
2022/08/31 06:47:08;;;;;;;;;;;17.30;99.90;;;;;;5014393;28;19960;-82
2022/08/31 06:49:37;;;;;;;;;;;17.30;99.90;;;;;;5011934;28;20404;-82
2022/08/31 06:52:03;;;;;;;;;;;17.40;99.90;;;;;;5043579;28;20092;-83
2022/08/31 06:54:30;;;;;;;;;;;17.40;99.90;;;;;;5031545;28;20727;-83
2022/08/31 06:57:15;;;;;;;;;;;17.40;99.90;;;;;;5032419;28;19963;-82
2022/08/31 06:59:50;;;;;;;;;;;17.40;99.90;;;;;;5033512;28;20007;-83
2022/08/31 07:02:36;;;;;;;;;;;17.40;99.90;;;;;;5020007;28;19920;-83
2022/08/31 07:05:02;;;;;;;;;;;17.40;99.90;;;;;;5027837;28;19917;-83
2022/08/31 07:07:29;;;;;;;;;;;17.40;99.90;;;;;;5031686;28;19921;-84
2022/08/31 07:09:56;;;;;;;;;;;17.40;99.90;;;;;;5031173;28;20297;-84
2022/08/31 07:12:21;;;;;;;;;;;17.50;99.90;;;;;;5027304;28;19947;-83
2022/08/31 07:14:47;;;;;;;;;;;17.50;99.90;;;;;;5019516;28;19924;-82
2022/08/31 07:17:13;;;;;;;;;;;17.50;99.90;;;;;;5014556;28;20413;-84
2022/08/31 07:19:39;;;;;;;;;;;17.50;99.90;;;;;;5011154;28;20726;-84
2022/08/31 07:22:05;;;;;;;;;;;17.60;99.90;;;;;;5046846;28;19914;-84
2022/08/31 07:24:33;;;;;;;;;;;17.60;99.90;;;;;;5010035;28;19917;-83
2022/08/31 07:27:03;;;;;;;;;;;17.60;99.90;;;;;;5030038;28;19975;-83
2022/08/31 07:29:40;;;;;;;;;;;17.60;99.90;;;;;;5015927;28;19925;-82
2022/08/31 07:32:08;;;;;;;;;;;17.70;99.90;;;;;;5026402;28;19956;-83
2022/08/31 07:34:35;;;;;;;;;;;17.70;99.90;;;;;;5034463;28;20471;-83
2022/08/31 07:42:54;;;;;;;;;;;17.80;99.90;;;;;;5026175;28;20000;-85
2022/08/31 07:45:20;;;;;;;;;;;17.80;99.90;;;;;;5011495;28;19922;-84
2022/08/31 07:47:47;;;;;;;;;;;17.80;99.90;;;;;;5013667;28;20388;-84
2022/08/31 07:50:14;;;;;;;;;;;17.80;99.90;;;;;;4995717;28;20008;-83
2022/08/31 07:52:57;;;;;;;;;;;17.90;99.90;;;;;;5027786;28;19960;-84
2022/08/31 07:55:44;;;;;;;;;;;17.90;99.90;;;;;;5015773;28;19960;-83
2022/08/31 07:58:29;;;;;;;;;;;18.00;99.90;;;;;;5029732;28;20017;-85
2022/08/31 08:00:54;;;;;;;;;;;18.10;99.90;;;;;;5027014;28;19971;-84
2022/08/31 08:03:20;;;;;;;;;;;18.30;99.90;;;;;;5009415;28;19918;-83
2022/08/31 08:06:11;;;;;;;;;;;18.40;99.90;;;;;;5031113;28;19924;-83
2022/08/31 08:08:46;;;;;;;;;;;18.50;99.90;;;;;;5026151;28;19921;-83
2022/08/31 08:11:20;;;;;;;;;;;18.70;99.90;;;;;;5026414;28;19917;-83
2022/08/31 08:14:02;;;;;;;;;;;18.70;99.90;;;;;;5010371;28;19920;-83
2022/08/31 08:16:42;;;;;;;;;;;18.90;99.90;;;;;;5023672;28;19914;-83
2022/08/31 08:19:40;;;;;;;;;;;19.00;99.90;;;;;;5026883;28;19940;-83
2022/08/31 08:22:06;;;;;;;;;;;19.10;99.90;;;;;;5013933;28;19924;-84
2022/08/31 08:24:50;;;;;;;;;;;19.10;99.90;;;;;;5016908;28;20464;-84
2022/08/31 08:27:39;;;;;;;;;;;19.10;99.90;;;;;;5017589;28;20362;-84
2022/08/31 08:30:12;;;;;;;;;;;19.20;99.90;;;;;;5012190;28;20301;-84
2022/08/31 08:32:39;;;;;;;;;;;19.20;99.90;;;;;;5029800;28;19917;-83
2022/08/31 08:35:05;;;;;;;;;;;19.30;99.90;;;;;;5046838;28;19913;-84
2022/08/31 08:37:31;;;;;;;;;;;19.30;99.90;;;;;;5013586;28;19914;-86
2022/08/31 08:40:00;;;;;;;;;;;19.40;99.90;;;;;;5030212;28;19970;-85
2022/08/31 08:42:27;;;;;;;;;;;19.50;99.90;;;;;;5016085;28;19928;-83
2022/08/31 08:44:55;;;;;;;;;;;19.50;99.90;;;;;;5029051;28;19921;-83
2022/08/31 08:47:24;;;;;;;;;;;19.60;99.90;;;;;;5019187;28;20362;-83
2022/08/31 08:49:56;;;;;;;;;;;19.70;99.90;;;;;;5014141;28;19924;-83
2022/08/31 08:52:28;;;;;;;;;;;19.80;99.90;;;;;;5029780;28;19914;-83
2022/08/31 08:54:55;;;;;;;;;;;19.90;99.90;;;;;;5029195;28;19924;-84
2022/08/31 08:57:20;;;;;;;;;;;20.00;99.90;;;;;;5031327;28;19914;-82
2022/08/31 08:59:55;;;;;;;;;;;20.10;99.90;;;;;;5030328;28;19940;-83
2022/08/31 09:02:24;;;;;;;;;;;20.10;99.90;;;;;;5012482;28;19913;-83
2022/08/31 09:05:23;;;;;;;;;;;20.10;99.90;;;;;;5032850;28;19917;-86
2022/08/31 09:08:08;;;;;;;;;;;20.20;99.90;;;;;;5024858;28;19914;-83
2022/08/31 09:10:40;;;;;;;;;;;20.30;99.90;;;;;;5002050;28;19917;-83
2022/08/31 09:13:08;;;;;;;;;;;20.30;99.90;;;;;;5004114;28;20431;-83
2022/08/31 09:15:37;;;;;;;;;;;20.40;99.90;;;;;;5013792;28;20183;-84
2022/08/31 09:18:25;;;;;;;;;;;20.40;99.90;;;;;;5029517;28;19913;-84
2022/08/31 09:21:01;;;;;;;;;;;20.50;99.90;;;;;;5009211;28;19914;-84
2022/08/31 09:23:28;;;;;;;;;;;20.70;99.90;;;;;;4993627;28;20635;-84
2022/08/31 09:25:57;;;;;;;;;;;20.80;99.90;;;;;;4995018;28;19920;-83
2022/08/31 09:28:46;;;;;;;;;;;20.90;99.90;;;;;;5029044;28;19924;-84
2022/08/31 09:31:31;;;;;;;;;;;21.00;99.90;;;;;;5028271;28;19920;-84
2022/08/31 09:33:57;;;;;;;;;;;21.10;99.90;;;;;;5030000;28;19913;-84
2022/08/31 09:36:24;;;;;;;;;;;21.00;99.90;;;;;;5013253;28;20024;-83
2022/08/31 09:38:50;;;;;;;;;;;20.90;99.90;;;;;;5024933;28;19920;-84
2022/08/31 09:41:31;;;;;;;;;;;20.80;99.90;;;;;;5025777;28;19917;-84
2022/08/31 09:44:17;;;;;;;;;;;20.80;99.90;;;;;;5027824;28;19967;-83
2022/08/31 09:46:47;;;;;;;;;;;20.80;99.90;;;;;;5030042;28;19916;-84
2022/08/31 09:49:24;;;;;;;;;;;20.90;99.90;;;;;;5020547;28;20414;-83
2022/08/31 09:51:51;;;;;;;;;;;20.90;99.90;;;;;;5035011;28;20335;-83
2022/08/31 09:57:04;;;;;;;;;;;20.90;99.90;;;;;;5027943;28;19968;-84
2022/08/31 09:59:30;;;;;;;;;;;20.90;99.90;;;;;;4999177;28;20711;-85
2022/08/31 10:01:58;;;;;;;;;;;20.90;99.90;;;;;;5030719;28;19964;-84
2022/08/31 10:04:31;;;;;;;;;;;20.90;99.90;;;;;;5018466;28;20362;-83
2022/08/31 10:07:10;;;;;;;;;;;20.90;99.90;;;;;;5018140;28;20285;-84
2022/08/31 10:09:43;;;;;;;;;;;20.90;99.90;;;;;;5034634;28;20302;-84
2022/08/31 10:12:14;;;;;;;;;;;20.80;99.90;;;;;;5020625;28;20387;-83
2022/08/31 10:14:49;;;;;;;;;;;20.80;99.90;;;;;;5024120;28;20016;-83
2022/08/31 10:17:24;;;;;;;;;;;20.90;99.90;;;;;;5024617;28;19924;-84
2022/08/31 10:19:54;;;;;;;;;;;20.90;99.90;;;;;;5027641;28;19920;-84
2022/08/31 10:22:26;;;;;;;;;;;21.10;99.90;;;;;;5022772;28;19913;-85
2022/08/31 10:25:03;;;;;;;;;;;21.10;99.90;;;;;;5017685;28;19941;-84
2022/08/31 10:27:37;;;;;;;;;;;21.20;99.90;;;;;;5032199;28;19971;-83
2022/08/31 10:30:02;;;;;;;;;;;21.30;99.90;;;;;;5054654;28;19924;-83
2022/08/31 10:32:42;;;;;;;;;;;21.40;99.90;;;;;;5025749;28;19920;-85
2022/08/31 10:35:10;;;;;;;;;;;21.40;99.90;;;;;;5024688;28;19917;-84
2022/08/31 10:37:42;;;;;;;;;;;21.40;99.90;;;;;;5027370;28;19920;-83
2022/08/31 10:40:20;;;;;;;;;;;21.30;99.90;;;;;;5011224;28;19917;-83
2022/08/31 10:42:58;;;;;;;;;;;21.30;99.90;;;;;;5029119;28;19920;-83
2022/08/31 10:45:25;;;;;;;;;;;21.30;99.90;;;;;;5028895;28;20055;-84
2022/08/31 10:47:53;;;;;;;;;;;21.30;99.90;;;;;;5045681;28;19913;-87
2022/08/31 10:50:39;;;;;;;;;;;21.30;99.90;;;;;;5027643;28;19917;-85
2022/08/31 10:53:17;;;;;;;;;;;21.40;99.90;;;;;;5022354;28;20055;-84
2022/08/31 10:56:19;;;;;;;;;;;21.40;99.90;;;;;;5020311;28;20562;-84
2022/08/31 10:58:52;;;;;;;;;;;21.40;99.90;;;;;;5066506;28;19948;-84
2022/08/31 11:01:36;;;;;;;;;;;21.50;99.90;;;;;;5036778;28;19959;-83
2022/08/31 11:04:18;;;;;;;;;;;21.60;99.90;;;;;;5028213;28;19917;-83
2022/08/31 11:06:53;;;;;;;;;;;21.60;99.90;;;;;;5035019;28;19913;-83
2022/08/31 11:09:23;;;;;;;;;;;21.60;99.90;;;;;;5032558;28;19920;-84
2022/08/31 11:12:02;;;;;;;;;;;21.70;99.90;;;;;;5019456;28;20505;-84
2022/08/31 11:14:32;;;;;;;;;;;21.70;99.90;;;;;;5030435;28;19972;-84
2022/08/31 11:17:01;;;;;;;;;;;21.70;99.90;;;;;;5012638;28;19913;-85
2022/08/31 11:20:05;;;;;;;;;;;21.60;99.90;;;;;;5031242;28;20501;-85
2022/08/31 11:23:04;;;;;;;;;;;21.60;99.90;;;;;;5022749;28;19918;-83
2022/08/31 11:25:48;;;;;;;;;;;21.60;99.90;;;;;;5011155;28;19921;-84
2022/08/31 11:28:15;;;;;;;;;;;21.70;99.90;;;;;;5015657;28;19917;-84
2022/08/31 11:30:44;;;;;;;;;;;21.70;99.90;;;;;;5039418;28;19928;-87
2022/08/31 11:33:18;;;;;;;;;;;21.70;99.90;;;;;;5027792;28;19913;-86
2022/08/31 11:35:48;;;;;;;;;;;21.60;99.90;;;;;;5029026;28;20386;-82
2022/08/31 11:38:34;;;;;;;;;;;21.70;99.90;;;;;;5010609;28;19909;-84
2022/08/31 11:41:01;;;;;;;;;;;21.70;99.90;;;;;;5024268;28;19913;-84
2022/08/31 11:43:30;;;;;;;;;;;21.70;99.90;;;;;;5027498;28;20415;-84
2022/08/31 11:46:00;;;;;;;;;;;21.80;99.90;;;;;;5021292;28;19967;-84
2022/08/31 11:48:47;;;;;;;;;;;21.80;99.90;;;;;;5028440;28;19923;-85
2022/08/31 11:51:32;;;;;;;;;;;21.80;99.90;;;;;;5008380;28;19917;-84
2022/08/31 11:54:00;;;;;;;;;;;21.80;99.90;;;;;;5026021;28;19924;-84
2022/08/31 11:56:37;;;;;;;;;;;21.90;99.90;;;;;;5027822;28;20039;-85
2022/08/31 11:59:25;;;;;;;;;;;21.90;99.50;;;;;;5052329;28;20336;-83
2022/08/31 12:01:53;;;;;;;;;;;21.80;99.90;;;;;;5011810;28;19966;-85
2022/08/31 12:04:28;;;;;;;;;;;21.70;99.90;;;;;;5029880;28;19943;-87
2022/08/31 12:06:58;;;;;;;;;;;21.60;99.90;;;;;;5030385;28;19946;-85
2022/08/31 12:10:00;;;;;;;;;;;21.60;99.90;;;;;;5008854;28;19924;-88
2022/08/31 12:12:32;;;;;;;;;;;21.70;99.90;;;;;;5047789;28;19912;-84
2022/08/31 12:15:11;;;;;;;;;;;21.70;99.90;;;;;;5016727;28;20136;-87
2022/08/31 12:17:53;;;;;;;;;;;21.60;99.90;;;;;;5012217;28;20187;-86
2022/08/31 12:20:22;;;;;;;;;;;21.50;99.90;;;;;;5046780;28;20329;-86
2022/08/31 12:26:01;;;;;;;;;;;21.60;99.90;;;;;;5030198;28;19913;-86
2022/08/31 12:28:26;;;;;;;;;;;21.60;99.90;;;;;;5031002;28;19914;-85
2022/08/31 12:30:53;;;;;;;;;;;21.60;99.90;;;;;;5027972;28;19913;-85
2022/08/31 12:33:25;;;;;;;;;;;21.70;99.90;;;;;;5024377;28;20685;-86
2022/08/31 12:35:56;;;;;;;;;;;21.70;99.90;;;;;;5030675;28;19961;-84
2022/08/31 12:38:25;;;;;;;;;;;21.80;99.90;;;;;;5036239;28;19920;-85
2022/08/31 12:40:55;;;;;;;;;;;21.90;99.90;;;;;;5009102;28;19917;-84
2022/08/31 12:43:39;;;;;;;;;;;21.90;99.90;;;;;;5038978;28;19920;-84
2022/08/31 12:46:08;;;;;;;;;;;22.00;99.90;;;;;;5029915;28;19917;-87
2022/08/31 12:48:33;;;;;;;;;;;22.10;99.90;;;;;;5045886;28;20391;-86
2022/08/31 12:51:02;;;;;;;;;;;22.10;99.90;;;;;;5035890;28;19928;-84
2022/08/31 12:53:43;;;;;;;;;;;22.10;99.90;;;;;;5010144;28;20406;-86
2022/08/31 12:56:12;;;;;;;;;;;22.00;99.90;;;;;;5036582;28;19913;-84
2022/08/31 12:58:46;;;;;;;;;;;22.00;99.90;;;;;;5032172;28;19956;-86
2022/08/31 13:01:15;;;;;;;;;;;22.00;99.90;;;;;;5028711;28;20393;-88
2022/08/31 13:03:45;;;;;;;;;;;22.00;99.20;;;;;;5043169;28;19913;-85
2022/08/31 13:06:12;;;;;;;;;;;22.00;99.40;;;;;;5028392;28;20012;-86
2022/08/31 13:08:40;;;;;;;;;;;22.00;99.60;;;;;;5008335;28;19960;-84
2022/08/31 13:11:15;;;;;;;;;;;22.10;98.80;;;;;;5023485;28;19983;-85
2022/08/31 13:13:41;;;;;;;;;;;22.10;98.70;;;;;;5042406;28;20676;-85
2022/08/31 13:16:07;;;;;;;;;;;22.10;99.40;;;;;;5007622;28;19960;-86
2022/08/31 13:18:33;;;;;;;;;;;22.20;99.20;;;;;;5010428;28;19944;-87
2022/08/31 13:21:04;;;;;;;;;;;22.20;98.80;;;;;;5026183;28;19917;-85
2022/08/31 13:23:33;;;;;;;;;;;22.10;97.80;;;;;;5026611;28;20536;-85
2022/08/31 13:26:13;;;;;;;;;;;21.90;99.20;;;;;;5018093;28;19948;-84
2022/08/31 13:28:40;;;;;;;;;;;21.90;99.30;;;;;;5024554;28;19913;-85
2022/08/31 13:31:09;;;;;;;;;;;21.80;99.90;;;;;;4997484;28;19928;-86
2022/08/31 13:33:38;;;;;;;;;;;21.70;99.80;;;;;;5025589;28;19913;-84
2022/08/31 13:36:30;;;;;;;;;;;21.70;99.40;;;;;;5010760;28;19922;-84
2022/08/31 13:39:04;;;;;;;;;;;21.70;99.50;;;;;;5030014;28;19951;-87
2022/08/31 13:41:32;;;;;;;;;;;21.60;99.20;;;;;;5029330;28;20340;-84
2022/08/31 13:44:00;;;;;;;;;;;21.60;99.60;;;;;;5041901;28;20619;-84
2022/08/31 13:46:26;;;;;;;;;;;21.60;99.20;;;;;;5016648;28;19961;-84
2022/08/31 13:49:00;;;;;;;;;;;21.50;99.40;;;;;;5009846;28;19913;-84
2022/08/31 13:51:28;;;;;;;;;;;21.40;99.50;;;;;;5016724;28;20401;-86
2022/08/31 13:53:54;;;;;;;;;;;21.40;99.30;;;;;;5041786;28;20027;-86
2022/08/31 13:56:53;;;;;;;;;;;21.40;99.90;;;;;;5009814;28;20453;-87
2022/08/31 13:59:23;;;;;;;;;;;21.30;99.40;;;;;;5022291;28;20352;-86
2022/08/31 14:01:57;;;;;;;;;;;21.20;99.80;;;;;;5020668;28;19916;-85
2022/08/31 14:04:47;;;;;;;;;;;21.20;99.90;;;;;;5005428;28;20522;-85
2022/08/31 14:07:20;;;;;;;;;;;21.20;99.90;;;;;;5028162;28;19928;-84
2022/08/31 14:09:48;;;;;;;;;;;21.20;99.80;;;;;;5024151;28;19917;-84
2022/08/31 14:12:33;;;;;;;;;;;21.20;99.60;;;;;;5028915;28;19949;-85
2022/08/31 14:15:16;;;;;;;;;;;21.20;99.60;;;;;;5004485;28;19917;-84
2022/08/31 14:17:42;;;;;;;;;;;21.20;99.80;;;;;;5027841;28;19914;-84
2022/08/31 14:20:40;;;;;;;;;;;21.20;99.90;;;;;;5001852;28;19962;-84
2022/08/31 14:23:23;;;;;;;;;;;21.20;99.90;;;;;;5021642;28;19914;-85
2022/08/31 14:25:51;;;;;;;;;;;21.10;99.90;;;;;;5017855;28;19917;-85
2022/08/31 14:28:29;;;;;;;;;;;21.10;99.80;;;;;;5033151;28;19924;-87
2022/08/31 14:30:55;;;;;;;;;;;21.00;99.20;;;;;;5036341;28;19917;-85
2022/08/31 14:33:20;;;;;;;;;;;20.90;99.90;;;;;;5033687;28;19923;-87
2022/08/31 14:35:46;;;;;;;;;;;20.80;99.80;;;;;;5004179;28;20021;-86
2022/08/31 14:38:13;;;;;;;;;;;20.70;99.90;;;;;;5040091;28;19968;-85
2022/08/31 14:40:42;;;;;;;;;;;20.60;99.90;;;;;;5016976;28;19920;-84
2022/08/31 14:43:12;;;;;;;;;;;20.50;99.90;;;;;;5050018;28;19944;-86
2022/08/31 14:45:37;;;;;;;;;;;20.50;99.90;;;;;;5013325;28;20004;-87
2022/08/31 14:48:07;;;;;;;;;;;20.40;99.90;;;;;;4997672;28;19961;-86
2022/08/31 14:50:33;;;;;;;;;;;20.30;99.90;;;;;;4998091;28;19921;-85
2022/08/31 14:52:59;;;;;;;;;;;20.20;99.90;;;;;;4981148;28;19924;-85
2022/08/31 14:55:26;;;;;;;;;;;20.20;99.90;;;;;;4997440;28;19948;-85